createdAt,value
2017-08-11T00:01:59.621Z,11.40
2017-08-11T00:04:27.234Z,11.40
2017-08-11T00:06:54.799Z,11.30
2017-08-11T00:09:22.794Z,11.30
2017-08-11T00:11:50.388Z,11.30
2017-08-11T00:14:18.744Z,11.30
2017-08-11T00:16:46.330Z,11.20
2017-08-11T00:19:14.675Z,11.30
2017-08-11T00:21:42.282Z,11.30
2017-08-11T00:24:09.936Z,11.30
2017-08-11T00:26:37.773Z,11.30
2017-08-11T00:29:05.367Z,11.40
2017-08-11T00:31:32.943Z,11.40
2017-08-11T00:34:00.590Z,11.40
2017-08-11T00:36:28.155Z,11.50
2017-08-11T00:38:55.752Z,11.50
2017-08-11T00:41:23.324Z,11.60
2017-08-11T00:43:51.246Z,11.70
2017-08-11T00:46:18.811Z,11.70
2017-08-11T00:48:46.395Z,11.80
2017-08-11T00:51:14.000Z,11.80
2017-08-11T00:53:42.344Z,12.00
2017-08-11T00:56:10.201Z,12.00
2017-08-11T00:58:37.773Z,12.10
2017-08-11T01:01:05.336Z,12.00
2017-08-11T01:03:32.942Z,12.10
2017-08-11T01:06:00.528Z,12.00
2017-08-11T01:08:28.137Z,11.80
2017-08-11T01:10:56.474Z,11.70
2017-08-11T01:13:24.337Z,11.70
2017-08-11T01:15:51.899Z,11.60
2017-08-11T01:18:20.235Z,11.70
2017-08-11T01:20:47.818Z,11.70
2017-08-11T01:23:15.394Z,11.70
2017-08-11T01:25:43.074Z,11.70
2017-08-11T01:28:10.661Z,11.70
2017-08-11T01:30:39.262Z,11.80
2017-08-11T01:33:06.835Z,11.80
2017-08-11T01:35:34.402Z,11.80
2017-08-11T01:38:01.994Z,11.80
2017-08-11T01:40:29.558Z,11.80
2017-08-11T01:42:57.159Z,11.90
2017-08-11T01:45:24.790Z,11.90
2017-08-11T01:47:53.538Z,11.90
2017-08-11T01:50:21.097Z,11.90
2017-08-11T01:52:48.662Z,12.00
2017-08-11T01:55:16.272Z,12.10
2017-08-11T01:57:43.854Z,11.90
2017-08-11T02:00:11.838Z,11.70
2017-08-11T02:02:39.411Z,11.60
2017-08-11T02:05:06.988Z,11.50
2017-08-11T02:07:34.602Z,11.40
2017-08-11T02:10:02.196Z,11.40
2017-08-11T02:12:29.790Z,11.40
2017-08-11T02:14:58.120Z,11.20
2017-08-11T02:17:26.157Z,11.20
2017-08-11T02:19:53.727Z,11.20
2017-08-11T02:22:21.298Z,11.10
2017-08-11T02:24:48.905Z,11.10
2017-08-11T02:27:16.543Z,11.00
2017-08-11T02:29:44.139Z,11.00
2017-08-11T02:32:12.484Z,11.00
2017-08-11T02:34:40.518Z,11.00
2017-08-11T02:37:08.100Z,11.00
2017-08-11T02:39:35.740Z,11.10
2017-08-11T02:42:03.334Z,11.20
2017-08-11T02:44:30.917Z,11.30
2017-08-11T02:46:58.613Z,11.30
2017-08-11T02:49:26.234Z,11.20
2017-08-11T02:51:54.178Z,11.30
2017-08-11T02:54:21.829Z,11.40
2017-08-11T02:56:49.421Z,11.30
2017-08-11T02:59:17.131Z,11.50
2017-08-11T03:01:44.703Z,11.50
2017-08-11T03:04:12.303Z,11.40
2017-08-11T03:06:40.660Z,11.20
2017-08-11T03:09:08.555Z,11.20
2017-08-11T03:11:36.951Z,11.00
2017-08-11T03:14:04.528Z,11.00
2017-08-11T03:16:32.139Z,11.00
2017-08-11T03:18:59.717Z,11.00
2017-08-11T03:21:28.531Z,11.00
2017-08-11T03:23:56.116Z,11.00
2017-08-11T03:26:23.965Z,11.00
2017-08-11T03:28:51.515Z,10.90
2017-08-11T03:31:19.299Z,10.90
2017-08-11T03:33:46.899Z,10.90
2017-08-11T03:36:14.453Z,10.90
2017-08-11T03:38:42.069Z,10.90
2017-08-11T03:41:09.652Z,11.00
2017-08-11T03:43:37.550Z,11.10
2017-08-11T03:46:05.152Z,11.20
2017-08-11T03:48:32.736Z,11.40
2017-08-11T03:51:00.318Z,11.20
2017-08-11T03:53:27.900Z,11.50
2017-08-11T03:55:56.263Z,11.60
2017-08-11T03:58:23.834Z,11.60
2017-08-11T04:00:52.480Z,11.30
2017-08-11T04:03:20.074Z,11.30
2017-08-11T04:05:48.395Z,11.30
2017-08-11T04:08:15.985Z,11.30
2017-08-11T04:10:43.550Z,11.70
2017-08-11T04:13:11.122Z,11.60
2017-08-11T04:15:38.746Z,11.60
2017-08-11T04:18:06.652Z,11.70
2017-08-11T04:20:34.236Z,11.50
2017-08-11T04:23:01.811Z,11.50
2017-08-11T04:25:29.411Z,11.60
2017-08-11T04:27:56.988Z,11.70
2017-08-11T04:30:24.931Z,11.70
2017-08-11T04:32:52.498Z,11.70
2017-08-11T04:35:20.225Z,11.90
2017-08-11T04:37:47.816Z,11.90
2017-08-11T04:40:15.377Z,12.00
2017-08-11T04:42:43.343Z,11.90
2017-08-11T04:45:10.916Z,11.90
2017-08-11T04:47:38.486Z,11.70
2017-08-11T04:50:06.069Z,11.90
2017-08-11T04:52:33.691Z,12.00
2017-08-11T04:55:01.542Z,11.90
2017-08-11T04:57:29.105Z,11.90
2017-08-11T04:59:56.955Z,11.70
2017-08-11T05:02:24.535Z,11.70
2017-08-11T05:04:52.106Z,11.80
2017-08-11T05:07:19.686Z,11.90
2017-08-11T05:09:48.025Z,11.90
2017-08-11T05:12:15.885Z,11.90
2017-08-11T05:14:43.458Z,11.90
2017-08-11T05:17:11.022Z,11.80
2017-08-11T05:19:38.614Z,11.80
2017-08-11T05:22:06.200Z,11.90
2017-08-11T05:24:33.812Z,11.90
2017-08-11T05:27:01.381Z,11.80
2017-08-11T05:29:29.221Z,11.80
2017-08-11T05:31:56.792Z,11.70
2017-08-11T05:34:24.384Z,11.90
2017-08-11T05:36:51.962Z,12.00
2017-08-11T05:39:19.535Z,12.10
2017-08-11T05:41:47.122Z,12.20
2017-08-11T05:44:14.723Z,12.30
2017-08-11T05:46:42.643Z,12.10
2017-08-11T05:49:10.219Z,12.20
2017-08-11T05:51:37.797Z,12.20
2017-08-11T05:54:05.413Z,12.30
2017-08-11T05:56:32.970Z,12.30
2017-08-11T05:59:00.552Z,12.40
2017-08-11T06:01:28.129Z,12.40
2017-08-11T06:03:56.797Z,12.20
2017-08-11T06:06:24.384Z,12.20
2017-08-11T06:08:52.755Z,12.30
2017-08-11T06:11:21.129Z,12.30
2017-08-11T06:13:49.483Z,12.20
2017-08-11T06:16:17.110Z,12.20
2017-08-11T06:18:44.685Z,12.30
2017-08-11T06:21:12.529Z,12.50
2017-08-11T06:23:40.095Z,12.60
2017-08-11T06:26:07.755Z,12.50
2017-08-11T06:28:35.403Z,12.50
2017-08-11T06:31:03.078Z,12.80
2017-08-11T06:33:30.725Z,12.90
2017-08-11T06:35:58.315Z,13.00
2017-08-11T06:38:26.224Z,13.40
2017-08-11T06:40:54.649Z,13.70
2017-08-11T06:43:22.209Z,13.70
2017-08-11T06:45:49.864Z,13.70
2017-08-11T06:48:17.442Z,13.80
2017-08-11T06:50:45.138Z,13.70
2017-08-11T06:53:12.723Z,14.00
2017-08-11T06:55:40.662Z,14.20
2017-08-11T06:58:08.240Z,14.30
2017-08-11T07:00:35.809Z,14.30
2017-08-11T07:03:03.402Z,14.20
2017-08-11T07:05:30.991Z,14.30
2017-08-11T07:07:58.588Z,14.30
2017-08-11T07:10:26.943Z,14.40
2017-08-11T07:12:54.886Z,14.40
2017-08-11T07:15:22.631Z,14.80
2017-08-11T07:17:50.244Z,14.90
2017-08-11T07:20:17.839Z,14.80
2017-08-11T07:22:45.425Z,15.00
2017-08-11T07:25:13.049Z,15.10
2017-08-11T07:27:40.644Z,15.40
2017-08-11T07:30:08.528Z,15.30
2017-08-11T07:32:36.105Z,15.20
2017-08-11T07:35:03.740Z,15.50
2017-08-11T07:37:31.319Z,15.70
2017-08-11T07:39:58.903Z,15.40
2017-08-11T07:42:26.477Z,15.70
2017-08-11T07:44:54.143Z,15.80
2017-08-11T07:47:22.051Z,15.60
2017-08-11T07:49:49.639Z,15.80
2017-08-11T07:52:17.989Z,16.20
2017-08-11T07:54:45.612Z,16.20
2017-08-11T07:57:13.189Z,16.50
2017-08-11T07:59:40.804Z,17.20
2017-08-11T08:02:08.398Z,17.70
2017-08-11T08:04:36.271Z,17.80
2017-08-11T08:07:03.878Z,17.60
2017-08-11T08:09:32.230Z,17.00
2017-08-11T08:11:59.836Z,17.00
2017-08-11T08:14:27.517Z,16.80
2017-08-11T08:16:55.147Z,16.40
2017-08-11T08:19:23.575Z,16.40
2017-08-11T08:21:51.552Z,16.40
2017-08-11T08:24:19.141Z,16.30
2017-08-11T08:26:46.732Z,16.50
2017-08-11T08:29:14.432Z,16.80
2017-08-11T08:31:42.023Z,17.00
2017-08-11T08:34:09.632Z,17.30
2017-08-11T08:36:37.252Z,17.30
2017-08-11T08:39:06.005Z,17.10
2017-08-11T08:41:33.592Z,17.00
2017-08-11T08:44:01.932Z,17.40
2017-08-11T08:46:29.596Z,17.40
2017-08-11T08:48:57.273Z,17.40
2017-08-11T08:51:24.899Z,17.50
2017-08-11T08:53:52.487Z,17.70
2017-08-11T08:56:20.468Z,17.60
2017-08-11T08:58:48.073Z,17.40
2017-08-11T09:01:15.679Z,17.20
2017-08-11T09:03:43.276Z,16.90
2017-08-11T09:06:10.858Z,16.80
2017-08-11T09:08:38.467Z,16.70
2017-08-11T09:11:06.042Z,16.70
2017-08-11T09:13:34.704Z,16.60
2017-08-11T09:16:02.270Z,16.60
2017-08-11T09:18:29.863Z,16.60
2017-08-11T09:20:57.479Z,16.70
2017-08-11T09:23:25.070Z,16.60
2017-08-11T09:26:05.493Z,16.70
2017-08-11T09:28:44.992Z,16.70
2017-08-11T09:31:24.798Z,16.70
2017-08-11T09:34:04.143Z,16.80
2017-08-11T09:36:38.652Z,17.00
2017-08-11T09:39:06.260Z,16.90
2017-08-11T09:41:33.843Z,17.10
2017-08-11T09:44:01.451Z,17.40
2017-08-11T09:46:29.815Z,18.20
2017-08-11T09:48:57.430Z,18.10
2017-08-11T09:51:25.058Z,18.70
2017-08-11T09:53:53.828Z,18.90
2017-08-11T09:56:21.404Z,18.90
2017-08-11T09:58:48.998Z,18.60
2017-08-11T10:01:16.665Z,18.60
2017-08-11T10:03:44.259Z,18.90
2017-08-11T10:06:11.904Z,19.00
2017-08-11T10:08:39.497Z,19.10
2017-08-11T10:11:08.136Z,19.50
2017-08-11T10:13:35.738Z,19.50
2017-08-11T10:16:03.342Z,19.90
2017-08-11T10:18:31.003Z,20.30
2017-08-11T10:20:58.599Z,20.70
2017-08-11T10:23:26.201Z,21.10
2017-08-11T10:25:53.775Z,21.10
2017-08-11T10:28:21.644Z,21.10
2017-08-11T10:30:49.234Z,20.90
2017-08-11T10:33:16.823Z,20.80
2017-08-11T10:35:44.421Z,20.70
2017-08-11T10:38:12.003Z,20.30
2017-08-11T10:40:39.957Z,19.90
2017-08-11T10:43:07.528Z,19.70
2017-08-11T10:45:35.115Z,19.90
2017-08-11T10:48:02.719Z,20.10
2017-08-11T10:50:30.325Z,20.50
2017-08-11T10:52:57.978Z,20.70
2017-08-11T10:55:25.578Z,20.70
2017-08-11T10:57:53.513Z,20.60
2017-08-11T11:00:21.108Z,20.70
2017-08-11T11:02:49.458Z,20.50
2017-08-11T11:05:17.072Z,20.50
2017-08-11T11:07:44.658Z,20.60
2017-08-11T11:10:12.527Z,20.80
2017-08-11T11:12:40.112Z,20.80
2017-08-11T11:15:07.681Z,20.50
2017-08-11T11:17:35.282Z,20.30
2017-08-11T11:20:02.857Z,20.10
2017-08-11T11:22:30.471Z,20.10
2017-08-11T11:24:58.846Z,20.20
2017-08-11T11:27:27.514Z,20.40
2017-08-11T11:29:55.094Z,20.40
2017-08-11T11:32:23.438Z,20.50
2017-08-11T11:34:51.040Z,20.50
2017-08-11T11:37:19.387Z,20.90
2017-08-11T11:39:46.998Z,20.90
2017-08-11T11:42:14.590Z,21.20
2017-08-11T11:44:42.449Z,21.30
2017-08-11T11:47:10.054Z,21.40
2017-08-11T11:49:38.432Z,21.40
2017-08-11T11:52:06.828Z,21.20
2017-08-11T11:54:34.452Z,21.20
2017-08-11T11:57:02.056Z,21.20
2017-08-11T11:59:29.787Z,21.30
2017-08-11T12:01:58.573Z,21.90
2017-08-11T12:04:27.099Z,22.30
2017-08-11T12:06:54.686Z,22.30
2017-08-11T12:09:22.314Z,23.00
2017-08-11T12:11:49.879Z,23.20
2017-08-11T12:14:17.492Z,23.20
2017-08-11T12:16:45.080Z,23.10
2017-08-11T12:19:12.969Z,22.70
2017-08-11T12:21:40.556Z,22.70
2017-08-11T12:24:08.137Z,22.60
2017-08-11T12:26:35.768Z,22.60
2017-08-11T12:29:03.358Z,22.70
2017-08-11T12:31:31.007Z,22.90
2017-08-11T12:33:58.599Z,23.20
2017-08-11T12:36:26.535Z,23.40
2017-08-11T12:38:54.116Z,23.60
2017-08-11T12:41:21.702Z,24.10
2017-08-11T12:43:49.317Z,24.40
2017-08-11T12:46:16.895Z,24.70
2017-08-11T12:48:44.499Z,25.00
2017-08-11T12:51:12.090Z,25.20
2017-08-11T12:53:39.957Z,25.50
2017-08-11T12:56:07.547Z,25.60
2017-08-11T12:58:35.906Z,25.90
2017-08-11T13:01:03.515Z,25.80
2017-08-11T13:03:31.235Z,25.80
2017-08-11T13:05:58.847Z,25.40
2017-08-11T13:08:26.417Z,25.00
2017-08-11T13:10:55.323Z,24.40
2017-08-11T13:13:22.923Z,24.30
2017-08-11T13:15:50.714Z,23.50
2017-08-11T13:18:18.299Z,23.40
2017-08-11T13:20:45.885Z,23.20
2017-08-11T13:23:13.460Z,23.20
2017-08-11T13:25:41.080Z,23.20
2017-08-11T13:28:08.895Z,23.10
2017-08-11T13:30:36.472Z,22.90
2017-08-11T13:33:04.043Z,22.70
2017-08-11T13:35:31.662Z,22.60
2017-08-11T13:37:59.252Z,22.50
2017-08-11T13:40:26.848Z,22.20
2017-08-11T13:42:54.438Z,21.90
2017-08-11T13:45:23.187Z,21.80
2017-08-11T13:47:50.786Z,21.70
2017-08-11T13:50:19.134Z,21.10
2017-08-11T13:52:46.760Z,21.10
2017-08-11T13:55:14.349Z,20.80
2017-08-11T13:57:42.026Z,20.60
2017-08-11T14:00:10.407Z,20.50
2017-08-11T14:02:38.432Z,20.50
2017-08-11T14:05:06.024Z,20.40
2017-08-11T14:07:33.618Z,20.30
2017-08-11T14:10:02.004Z,19.90
2017-08-11T14:12:29.572Z,19.90
2017-08-11T14:14:57.180Z,19.90
2017-08-11T14:17:24.756Z,19.70
2017-08-11T14:19:52.732Z,19.90
2017-08-11T14:22:20.347Z,19.90
2017-08-11T14:24:47.972Z,19.70
2017-08-11T14:27:15.600Z,19.70
2017-08-11T14:29:43.209Z,19.50
2017-08-11T14:32:10.814Z,19.50
2017-08-11T14:34:38.421Z,19.20
2017-08-11T14:37:06.339Z,19.00
2017-08-11T14:39:33.923Z,18.90
2017-08-11T14:42:01.507Z,18.60
2017-08-11T14:44:29.129Z,18.40
2017-08-11T14:46:56.702Z,18.00
2017-08-11T14:49:24.304Z,17.60
2017-08-11T14:51:51.892Z,17.30
2017-08-11T14:54:19.496Z,16.90
2017-08-11T14:56:47.890Z,16.80
2017-08-11T14:59:15.519Z,16.70
2017-08-11T15:01:43.879Z,16.90
2017-08-11T15:04:11.498Z,16.90
2017-08-11T15:06:39.084Z,16.90
2017-08-11T15:09:06.866Z,17.00
2017-08-11T15:11:34.480Z,17.00
2017-08-11T15:14:02.062Z,17.10
2017-08-11T15:16:29.906Z,17.20
2017-08-11T15:18:57.488Z,17.20
2017-08-11T15:21:25.091Z,17.20
2017-08-11T15:23:53.449Z,17.20
2017-08-11T15:26:21.037Z,17.20
2017-08-11T15:28:49.754Z,17.30
2017-08-11T15:31:17.362Z,17.30
2017-08-11T15:33:44.943Z,17.40
2017-08-11T15:36:12.576Z,17.30
2017-08-11T15:38:40.176Z,17.30
2017-08-11T15:41:08.554Z,17.40
2017-08-11T15:43:36.120Z,17.30
2017-08-11T15:46:03.959Z,17.40
2017-08-11T15:48:31.526Z,17.40
2017-08-11T15:50:59.181Z,17.40
2017-08-11T15:53:27.572Z,17.50
2017-08-11T15:55:55.154Z,17.50
2017-08-11T15:58:23.131Z,17.60
2017-08-11T16:00:50.748Z,17.60
2017-08-11T16:03:18.352Z,17.60
2017-08-11T16:05:46.016Z,17.70
2017-08-11T16:08:13.664Z,17.60
2017-08-11T16:10:41.578Z,17.60
2017-08-11T16:13:09.186Z,17.50
2017-08-11T16:15:36.766Z,17.40
2017-08-11T16:18:04.375Z,17.50
2017-08-11T16:20:32.708Z,17.20
2017-08-11T16:23:00.592Z,17.20
2017-08-11T16:25:28.320Z,17.20
2017-08-11T16:27:55.892Z,17.20
2017-08-11T16:30:23.501Z,17.20
2017-08-11T16:32:51.909Z,17.10
2017-08-11T16:35:19.631Z,17.10
2017-08-11T16:37:47.197Z,17.00
2017-08-11T16:40:15.547Z,17.00
2017-08-11T16:42:43.166Z,17.00
2017-08-11T16:45:10.768Z,17.00
2017-08-11T16:47:38.410Z,17.10
2017-08-11T16:50:05.963Z,17.00
2017-08-11T16:52:33.543Z,17.00
2017-08-11T16:55:01.147Z,16.90
2017-08-11T16:57:29.663Z,16.80
2017-08-11T16:59:57.292Z,16.80
2017-08-11T17:02:25.614Z,16.60
2017-08-11T17:04:53.203Z,16.60
2017-08-11T17:07:20.819Z,16.60
2017-08-11T17:09:48.426Z,16.60
2017-08-11T17:12:16.047Z,16.50
2017-08-11T17:14:43.643Z,16.50
2017-08-11T17:17:11.449Z,16.50
2017-08-11T17:19:39.073Z,16.40
2017-08-11T17:22:06.660Z,16.40
2017-08-11T17:24:34.327Z,16.30
2017-08-11T17:27:02.696Z,16.30
2017-08-11T17:29:31.346Z,16.30
2017-08-11T17:31:58.929Z,16.30
2017-08-11T17:34:27.301Z,16.20
2017-08-11T17:36:55.725Z,16.20
2017-08-11T17:39:23.318Z,16.20
2017-08-11T17:41:50.982Z,16.30
2017-08-11T17:44:18.589Z,16.30
2017-08-11T17:46:46.562Z,16.30
2017-08-11T17:49:14.166Z,16.30
2017-08-11T17:51:41.805Z,16.20
2017-08-11T17:54:09.416Z,16.30
2017-08-11T17:56:37.027Z,16.30
2017-08-11T17:59:04.645Z,16.20
2017-08-11T18:01:32.978Z,16.20
2017-08-11T18:04:00.976Z,16.20
2017-08-11T18:06:29.305Z,16.30
2017-08-11T18:08:56.966Z,16.30
2017-08-11T18:11:24.578Z,16.30
2017-08-11T18:13:52.929Z,16.30
2017-08-11T18:16:20.527Z,16.20
2017-08-11T18:18:48.136Z,16.20
2017-08-11T18:21:16.024Z,16.20
2017-08-11T18:23:43.627Z,16.10
2017-08-11T18:26:11.233Z,16.10
2017-08-11T18:28:38.844Z,16.10
2017-08-11T18:31:06.450Z,16.00
2017-08-11T18:33:34.064Z,15.90
2017-08-11T18:36:01.759Z,15.90
2017-08-11T18:38:29.704Z,15.90
2017-08-11T18:40:57.327Z,15.80
2017-08-11T18:43:24.953Z,15.90
2017-08-11T18:45:52.567Z,15.90
2017-08-11T18:48:20.917Z,15.80
2017-08-11T18:50:48.520Z,15.80
2017-08-11T18:53:16.135Z,15.70
2017-08-11T18:55:44.376Z,15.60
2017-08-11T18:58:11.970Z,15.60
2017-08-11T19:00:39.567Z,15.70
2017-08-11T19:03:07.180Z,15.70
2017-08-11T19:05:34.779Z,15.50
2017-08-11T19:08:03.163Z,15.40
2017-08-11T19:10:30.782Z,15.40
2017-08-11T19:12:58.753Z,15.40
2017-08-11T19:15:26.387Z,15.40
2017-08-11T19:17:54.180Z,15.40
2017-08-11T19:20:21.798Z,15.30
2017-08-11T19:22:49.394Z,15.30
2017-08-11T19:25:17.016Z,15.30
2017-08-11T19:27:44.595Z,15.20
2017-08-11T19:30:12.536Z,15.20
2017-08-11T19:32:40.118Z,15.10
2017-08-11T19:35:07.696Z,15.10
2017-08-11T19:37:35.298Z,15.10
2017-08-11T19:40:02.909Z,15.20
2017-08-11T19:42:30.521Z,15.20
2017-08-11T19:44:58.878Z,15.10
2017-08-11T19:47:26.738Z,15.20
2017-08-11T19:49:55.136Z,15.40
2017-08-11T19:52:23.486Z,15.50
2017-08-11T19:54:51.094Z,15.50
2017-08-11T19:57:18.708Z,15.30
2017-08-11T19:59:46.352Z,15.10
2017-08-11T20:02:13.940Z,15.10
2017-08-11T20:04:41.880Z,15.10
2017-08-11T20:07:09.476Z,15.10
2017-08-11T20:09:37.832Z,15.00
2017-08-11T20:12:05.439Z,15.10
2017-08-11T20:14:33.058Z,15.10
2017-08-11T20:17:00.650Z,15.20
2017-08-11T20:19:28.234Z,15.20
2017-08-11T20:21:56.140Z,15.20
2017-08-11T20:24:23.756Z,15.20
2017-08-11T20:26:51.336Z,15.10
2017-08-11T20:29:19.004Z,15.00
2017-08-11T20:31:46.600Z,15.00
2017-08-11T20:34:15.369Z,15.00
2017-08-11T20:36:42.950Z,15.00
2017-08-11T20:39:11.310Z,15.00
2017-08-11T20:41:38.931Z,15.00
2017-08-11T20:44:06.527Z,15.10
2017-08-11T20:46:34.148Z,15.00
2017-08-11T20:49:01.973Z,14.90
2017-08-11T20:51:30.651Z,14.90
2017-08-11T20:53:58.242Z,14.90
2017-08-11T20:56:25.796Z,15.00
2017-08-11T20:58:53.396Z,15.00
2017-08-11T21:01:21.058Z,15.00
2017-08-11T21:03:48.944Z,15.00
2017-08-11T21:06:16.670Z,15.00
2017-08-11T21:08:44.255Z,15.00
2017-08-11T21:11:11.879Z,15.20
2017-08-11T21:13:39.484Z,15.30
2017-08-11T21:16:07.474Z,15.30
2017-08-11T21:18:35.853Z,15.00
2017-08-11T21:21:04.242Z,15.10
2017-08-11T21:23:32.619Z,15.00
2017-08-11T21:26:00.988Z,15.00
2017-08-11T21:28:29.414Z,15.10
2017-08-11T21:30:56.998Z,15.00
2017-08-11T21:33:24.866Z,15.00
2017-08-11T21:35:52.440Z,15.00
2017-08-11T21:38:20.162Z,15.10
2017-08-11T21:40:47.771Z,15.00
2017-08-11T21:43:15.357Z,15.00
2017-08-11T21:45:42.992Z,15.00
2017-08-11T21:48:10.582Z,15.00
2017-08-11T21:50:38.500Z,15.00
2017-08-11T21:53:06.042Z,14.90
2017-08-11T21:55:33.651Z,14.90
2017-08-11T21:58:02.037Z,15.00
2017-08-11T22:00:29.636Z,15.00
2017-08-11T22:02:57.235Z,15.00
2017-08-11T22:05:24.843Z,15.00
2017-08-11T22:07:52.755Z,15.00
2017-08-11T22:10:20.339Z,15.00
2017-08-11T22:12:48.692Z,14.90
2017-08-11T22:15:16.291Z,14.90
2017-08-11T22:17:43.870Z,14.90
2017-08-11T22:20:11.498Z,14.90
2017-08-11T22:22:39.078Z,15.00
2017-08-11T22:25:06.992Z,15.10
2017-08-11T22:27:34.584Z,15.00
2017-08-11T22:30:02.944Z,15.20
2017-08-11T22:32:30.551Z,15.20
2017-08-11T22:34:58.153Z,15.00
2017-08-11T22:37:25.801Z,14.90
2017-08-11T22:39:53.390Z,15.00
2017-08-11T22:42:22.044Z,15.00
2017-08-11T22:44:49.635Z,15.00
2017-08-11T22:47:17.201Z,15.00
2017-08-11T22:49:45.584Z,14.90
2017-08-11T22:52:13.193Z,14.90
2017-08-11T22:54:40.820Z,14.90
2017-08-11T22:57:08.390Z,14.90
2017-08-11T22:59:36.263Z,14.90
2017-08-11T23:02:03.871Z,15.00
2017-08-11T23:04:31.443Z,15.10
2017-08-11T23:06:59.798Z,14.90
2017-08-11T23:09:27.374Z,14.80
2017-08-11T23:11:55.011Z,14.80
2017-08-11T23:14:22.594Z,14.80
2017-08-11T23:16:51.270Z,14.80
2017-08-11T23:19:18.841Z,14.80
2017-08-11T23:21:47.187Z,14.70
2017-08-11T23:24:14.779Z,14.70
2017-08-11T23:26:42.366Z,14.70
2017-08-11T23:29:09.976Z,14.70
2017-08-11T23:31:37.556Z,14.80
2017-08-11T23:34:06.242Z,14.90
2017-08-11T23:36:33.829Z,14.90
2017-08-11T23:39:01.399Z,14.80
2017-08-11T23:41:28.991Z,14.70
2017-08-11T23:43:56.571Z,14.70
2017-08-11T23:46:24.191Z,14.70
2017-08-11T23:48:51.772Z,14.90
2017-08-11T23:51:19.752Z,14.80
2017-08-11T23:53:47.335Z,14.80
2017-08-11T23:56:15.711Z,14.80
2017-08-11T23:58:44.110Z,14.80
